sensor_id;sensor_type;location;lat;lon;timestamp;P1;durP1;ratioP1;P2;durP2;ratioP2
55292;SDS011;41157;53.560;10.098;2022-08-03T00:02:25;3.45;;;2.70;;
55292;SDS011;41157;53.560;10.098;2022-08-03T00:04:51;3.95;;;2.88;;
55292;SDS011;41157;53.560;10.098;2022-08-03T00:07:17;6.18;;;3.00;;
55292;SDS011;41157;53.560;10.098;2022-08-03T00:09:43;3.83;;;2.70;;
55292;SDS011;41157;53.560;10.098;2022-08-03T00:12:09;7.18;;;3.22;;
55292;SDS011;41157;53.560;10.098;2022-08-03T00:14:35;3.60;;;2.70;;
55292;SDS011;41157;53.560;10.098;2022-08-03T00:17:01;4.97;;;3.22;;
55292;SDS011;41157;53.560;10.098;2022-08-03T00:19:27;3.65;;;2.97;;
55292;SDS011;41157;53.560;10.098;2022-08-03T00:21:53;7.88;;;3.13;;
55292;SDS011;41157;53.560;10.098;2022-08-03T00:24:19;10.50;;;3.40;;
55292;SDS011;41157;53.560;10.098;2022-08-03T00:26:45;4.80;;;3.25;;
55292;SDS011;41157;53.560;10.098;2022-08-03T00:29:11;3.10;;;2.80;;
55292;SDS011;41157;53.560;10.098;2022-08-03T00:31:37;5.63;;;2.90;;
55292;SDS011;41157;53.560;10.098;2022-08-03T00:34:03;5.80;;;2.95;;
55292;SDS011;41157;53.560;10.098;2022-08-03T00:36:29;4.90;;;3.22;;
55292;SDS011;41157;53.560;10.098;2022-08-03T00:38:55;6.15;;;3.50;;
55292;SDS011;41157;53.560;10.098;2022-08-03T00:41:21;4.03;;;2.83;;
55292;SDS011;41157;53.560;10.098;2022-08-03T00:43:47;3.30;;;2.80;;
55292;SDS011;41157;53.560;10.098;2022-08-03T00:46:13;5.57;;;2.70;;
55292;SDS011;41157;53.560;10.098;2022-08-03T00:48:39;3.50;;;2.72;;
55292;SDS011;41157;53.560;10.098;2022-08-03T00:51:05;5.07;;;3.03;;
55292;SDS011;41157;53.560;10.098;2022-08-03T00:53:31;5.28;;;3.13;;
55292;SDS011;41157;53.560;10.098;2022-08-03T00:55:58;3.30;;;2.58;;
55292;SDS011;41157;53.560;10.098;2022-08-03T00:58:23;6.18;;;3.20;;
55292;SDS011;41157;53.560;10.098;2022-08-03T01:00:49;4.70;;;3.25;;
55292;SDS011;41157;53.560;10.098;2022-08-03T01:03:15;5.45;;;2.90;;
55292;SDS011;41157;53.560;10.098;2022-08-03T01:08:22;6.15;;;2.78;;
55292;SDS011;41157;53.560;10.098;2022-08-03T01:14:08;3.15;;;2.92;;
55292;SDS011;41157;53.560;10.098;2022-08-03T01:16:42;6.38;;;3.42;;
55292;SDS011;41157;53.560;10.098;2022-08-03T01:21:58;4.85;;;3.65;;
55292;SDS011;41157;53.560;10.098;2022-08-03T01:27:17;6.40;;;3.28;;
55292;SDS011;41157;53.560;10.098;2022-08-03T01:30:00;3.88;;;2.90;;
55292;SDS011;41157;53.560;10.098;2022-08-03T01:32:38;3.67;;;3.20;;
55292;SDS011;41157;53.560;10.098;2022-08-03T01:35:08;6.65;;;3.30;;
55292;SDS011;41157;53.560;10.098;2022-08-03T01:37:37;4.28;;;3.40;;
55292;SDS011;41157;53.560;10.098;2022-08-03T01:40:04;5.28;;;3.28;;
55292;SDS011;41157;53.560;10.098;2022-08-03T01:42:31;6.38;;;3.17;;
55292;SDS011;41157;53.560;10.098;2022-08-03T01:44:57;4.47;;;3.17;;
55292;SDS011;41157;53.560;10.098;2022-08-03T01:47:25;7.18;;;3.05;;
55292;SDS011;41157;53.560;10.098;2022-08-03T01:49:52;7.10;;;3.25;;
55292;SDS011;41157;53.560;10.098;2022-08-03T01:52:18;9.95;;;3.55;;
55292;SDS011;41157;53.560;10.098;2022-08-03T01:54:45;4.15;;;2.90;;
55292;SDS011;41157;53.560;10.098;2022-08-03T01:57:13;4.00;;;3.50;;
55292;SDS011;41157;53.560;10.098;2022-08-03T01:59:39;4.95;;;3.40;;
55292;SDS011;41157;53.560;10.098;2022-08-03T02:02:07;4.22;;;3.30;;
55292;SDS011;41157;53.560;10.098;2022-08-03T02:04:33;4.90;;;3.10;;
55292;SDS011;41157;53.560;10.098;2022-08-03T02:06:59;7.00;;;3.47;;
55292;SDS011;41157;53.560;10.098;2022-08-03T02:09:26;8.05;;;3.25;;
55292;SDS011;41157;53.560;10.098;2022-08-03T02:11:53;4.32;;;3.30;;
55292;SDS011;41157;53.560;10.098;2022-08-03T02:14:19;3.20;;;2.90;;
55292;SDS011;41157;53.560;10.098;2022-08-03T02:16:47;7.15;;;3.50;;
55292;SDS011;41157;53.560;10.098;2022-08-03T02:19:13;5.05;;;3.70;;
55292;SDS011;41157;53.560;10.098;2022-08-03T02:21:41;3.38;;;3.05;;
55292;SDS011;41157;53.560;10.098;2022-08-03T02:24:08;8.10;;;3.40;;
55292;SDS011;41157;53.560;10.098;2022-08-03T02:26:35;5.03;;;3.38;;
55292;SDS011;41157;53.560;10.098;2022-08-03T02:29:04;5.65;;;3.25;;
55292;SDS011;41157;53.560;10.098;2022-08-03T02:31:32;4.55;;;3.45;;
55292;SDS011;41157;53.560;10.098;2022-08-03T02:34:00;4.85;;;3.83;;
55292;SDS011;41157;53.560;10.098;2022-08-03T02:36:28;5.70;;;3.47;;
55292;SDS011;41157;53.560;10.098;2022-08-03T02:38:55;4.65;;;3.35;;
55292;SDS011;41157;53.560;10.098;2022-08-03T02:41:23;4.88;;;3.38;;
55292;SDS011;41157;53.560;10.098;2022-08-03T02:43:50;3.20;;;3.00;;
55292;SDS011;41157;53.560;10.098;2022-08-03T02:46:22;3.72;;;3.10;;
55292;SDS011;41157;53.560;10.098;2022-08-03T02:48:49;5.00;;;3.60;;
55292;SDS011;41157;53.560;10.098;2022-08-03T02:51:17;6.13;;;3.63;;
55292;SDS011;41157;53.560;10.098;2022-08-03T02:53:44;8.20;;;3.40;;
55292;SDS011;41157;53.560;10.098;2022-08-03T02:56:10;4.43;;;3.50;;
55292;SDS011;41157;53.560;10.098;2022-08-03T02:58:38;4.00;;;3.58;;
55292;SDS011;41157;53.560;10.098;2022-08-03T03:01:04;3.75;;;3.40;;
55292;SDS011;41157;53.560;10.098;2022-08-03T03:03:32;7.35;;;3.67;;
55292;SDS011;41157;53.560;10.098;2022-08-03T03:05:58;4.20;;;3.45;;
55292;SDS011;41157;53.560;10.098;2022-08-03T03:08:24;5.97;;;3.55;;
55292;SDS011;41157;53.560;10.098;2022-08-03T03:10:54;6.28;;;3.83;;
55292;SDS011;41157;53.560;10.098;2022-08-03T03:13:20;4.03;;;3.65;;
55292;SDS011;41157;53.560;10.098;2022-08-03T03:15:46;4.40;;;3.47;;
55292;SDS011;41157;53.560;10.098;2022-08-03T03:18:13;4.10;;;3.45;;
55292;SDS011;41157;53.560;10.098;2022-08-03T03:20:40;5.13;;;3.40;;
55292;SDS011;41157;53.560;10.098;2022-08-03T03:23:06;7.78;;;3.95;;
55292;SDS011;41157;53.560;10.098;2022-08-03T03:25:33;5.78;;;3.75;;
55292;SDS011;41157;53.560;10.098;2022-08-03T03:28:00;4.75;;;3.65;;
55292;SDS011;41157;53.560;10.098;2022-08-03T03:30:27;8.70;;;4.40;;
55292;SDS011;41157;53.560;10.098;2022-08-03T03:32:53;4.57;;;4.18;;
55292;SDS011;41157;53.560;10.098;2022-08-03T03:35:20;4.72;;;3.92;;
55292;SDS011;41157;53.560;10.098;2022-08-03T03:37:46;5.40;;;3.72;;
55292;SDS011;41157;53.560;10.098;2022-08-03T03:40:12;8.90;;;3.92;;
55292;SDS011;41157;53.560;10.098;2022-08-03T03:42:39;3.70;;;3.40;;
55292;SDS011;41157;53.560;10.098;2022-08-03T03:45:05;4.15;;;3.75;;
55292;SDS011;41157;53.560;10.098;2022-08-03T03:47:32;5.88;;;3.88;;
55292;SDS011;41157;53.560;10.098;2022-08-03T03:49:58;5.55;;;3.88;;
55292;SDS011;41157;53.560;10.098;2022-08-03T03:52:24;5.57;;;3.50;;
55292;SDS011;41157;53.560;10.098;2022-08-03T03:54:50;4.57;;;3.80;;
55292;SDS011;41157;53.560;10.098;2022-08-03T03:57:16;6.00;;;3.97;;
55292;SDS011;41157;53.560;10.098;2022-08-03T03:59:42;4.60;;;3.85;;
55292;SDS011;41157;53.560;10.098;2022-08-03T04:02:09;4.70;;;3.97;;
55292;SDS011;41157;53.560;10.098;2022-08-03T04:04:35;6.35;;;3.80;;
55292;SDS011;41157;53.560;10.098;2022-08-03T04:07:20;4.07;;;3.67;;
55292;SDS011;41157;53.560;10.098;2022-08-03T04:10:12;6.10;;;4.47;;
55292;SDS011;41157;53.560;10.098;2022-08-03T04:12:58;5.47;;;4.18;;
55292;SDS011;41157;53.560;10.098;2022-08-03T04:15:26;8.18;;;4.15;;
55292;SDS011;41157;53.560;10.098;2022-08-03T04:17:53;4.20;;;3.80;;
55292;SDS011;41157;53.560;10.098;2022-08-03T04:20:20;5.85;;;4.60;;
55292;SDS011;41157;53.560;10.098;2022-08-03T04:22:48;6.93;;;4.03;;
55292;SDS011;41157;53.560;10.098;2022-08-03T04:25:16;6.13;;;4.38;;
55292;SDS011;41157;53.560;10.098;2022-08-03T04:27:43;7.05;;;4.45;;
55292;SDS011;41157;53.560;10.098;2022-08-03T04:30:11;4.72;;;4.32;;
55292;SDS011;41157;53.560;10.098;2022-08-03T04:32:37;6.13;;;3.55;;
55292;SDS011;41157;53.560;10.098;2022-08-03T04:35:03;5.63;;;4.60;;
55292;SDS011;41157;53.560;10.098;2022-08-03T04:37:32;8.95;;;4.57;;
55292;SDS011;41157;53.560;10.098;2022-08-03T04:40:00;6.65;;;4.38;;
55292;SDS011;41157;53.560;10.098;2022-08-03T04:42:26;5.88;;;4.53;;
55292;SDS011;41157;53.560;10.098;2022-08-03T04:44:53;4.30;;;4.00;;
55292;SDS011;41157;53.560;10.098;2022-08-03T04:47:20;4.57;;;3.95;;
55292;SDS011;41157;53.560;10.098;2022-08-03T04:49:46;8.35;;;4.57;;
55292;SDS011;41157;53.560;10.098;2022-08-03T04:52:13;5.65;;;4.38;;
55292;SDS011;41157;53.560;10.098;2022-08-03T04:54:42;5.80;;;4.65;;
55292;SDS011;41157;53.560;10.098;2022-08-03T04:57:09;5.65;;;4.07;;
55292;SDS011;41157;53.560;10.098;2022-08-03T04:59:35;6.90;;;4.18;;
55292;SDS011;41157;53.560;10.098;2022-08-03T05:02:01;4.35;;;3.95;;
55292;SDS011;41157;53.560;10.098;2022-08-03T05:04:27;7.45;;;4.13;;
55292;SDS011;41157;53.560;10.098;2022-08-03T05:06:53;4.63;;;3.80;;
55292;SDS011;41157;53.560;10.098;2022-08-03T05:09:19;8.90;;;4.63;;
55292;SDS011;41157;53.560;10.098;2022-08-03T05:11:45;11.00;;;4.60;;
55292;SDS011;41157;53.560;10.098;2022-08-03T05:14:10;5.60;;;4.20;;
55292;SDS011;41157;53.560;10.098;2022-08-03T05:16:36;4.60;;;4.10;;
55292;SDS011;41157;53.560;10.098;2022-08-03T05:19:02;9.00;;;4.70;;
55292;SDS011;41157;53.560;10.098;2022-08-03T05:21:28;18.27;;;4.25;;
55292;SDS011;41157;53.560;10.098;2022-08-03T05:23:54;7.57;;;4.40;;
55292;SDS011;41157;53.560;10.098;2022-08-03T05:26:20;14.68;;;5.38;;
55292;SDS011;41157;53.560;10.098;2022-08-03T05:28:46;7.43;;;5.57;;
55292;SDS011;41157;53.560;10.098;2022-08-03T05:31:12;6.47;;;4.80;;
55292;SDS011;41157;53.560;10.098;2022-08-03T05:33:38;7.15;;;4.75;;
55292;SDS011;41157;53.560;10.098;2022-08-03T05:36:04;6.13;;;4.72;;
55292;SDS011;41157;53.560;10.098;2022-08-03T05:38:31;8.75;;;4.65;;
55292;SDS011;41157;53.560;10.098;2022-08-03T05:40:57;5.03;;;4.50;;
55292;SDS011;41157;53.560;10.098;2022-08-03T05:43:23;6.30;;;4.85;;
55292;SDS011;41157;53.560;10.098;2022-08-03T05:45:49;9.43;;;4.47;;
55292;SDS011;41157;53.560;10.098;2022-08-03T05:48:15;10.15;;;4.50;;
55292;SDS011;41157;53.560;10.098;2022-08-03T05:50:41;8.88;;;4.85;;
55292;SDS011;41157;53.560;10.098;2022-08-03T05:53:07;5.30;;;4.38;;
55292;SDS011;41157;53.560;10.098;2022-08-03T05:55:33;8.52;;;4.70;;
55292;SDS011;41157;53.560;10.098;2022-08-03T05:57:59;7.53;;;4.35;;
55292;SDS011;41157;53.560;10.098;2022-08-03T06:00:27;8.05;;;4.07;;
55292;SDS011;41157;53.560;10.098;2022-08-03T06:02:54;12.27;;;4.95;;
55292;SDS011;41157;53.560;10.098;2022-08-03T06:05:21;7.97;;;4.90;;
55292;SDS011;41157;53.560;10.098;2022-08-03T06:07:47;5.30;;;4.50;;
55292;SDS011;41157;53.560;10.098;2022-08-03T06:10:13;7.57;;;4.55;;
55292;SDS011;41157;53.560;10.098;2022-08-03T06:12:39;6.97;;;4.78;;
55292;SDS011;41157;53.560;10.098;2022-08-03T06:15:05;4.07;;;3.67;;
55292;SDS011;41157;53.560;10.098;2022-08-03T06:17:31;4.95;;;3.97;;
55292;SDS011;41157;53.560;10.098;2022-08-03T06:19:57;9.88;;;4.75;;
55292;SDS011;41157;53.560;10.098;2022-08-03T06:22:23;9.68;;;4.20;;
55292;SDS011;41157;53.560;10.098;2022-08-03T06:24:49;5.78;;;4.40;;
55292;SDS011;41157;53.560;10.098;2022-08-03T06:27:15;8.27;;;4.32;;
55292;SDS011;41157;53.560;10.098;2022-08-03T06:29:41;5.43;;;4.03;;
55292;SDS011;41157;53.560;10.098;2022-08-03T06:32:07;10.50;;;4.20;;
55292;SDS011;41157;53.560;10.098;2022-08-03T06:34:33;5.72;;;4.47;;
55292;SDS011;41157;53.560;10.098;2022-08-03T06:36:59;11.05;;;4.32;;
55292;SDS011;41157;53.560;10.098;2022-08-03T06:39:25;3.97;;;3.40;;
55292;SDS011;41157;53.560;10.098;2022-08-03T06:41:51;10.95;;;4.68;;
55292;SDS011;41157;53.560;10.098;2022-08-03T06:44:17;9.25;;;4.03;;
55292;SDS011;41157;53.560;10.098;2022-08-03T06:46:43;5.22;;;3.72;;
55292;SDS011;41157;53.560;10.098;2022-08-03T06:49:09;9.80;;;4.30;;
55292;SDS011;41157;53.560;10.098;2022-08-03T06:51:35;8.05;;;3.90;;
55292;SDS011;41157;53.560;10.098;2022-08-03T06:54:01;16.88;;;4.07;;
55292;SDS011;41157;53.560;10.098;2022-08-03T06:56:27;8.55;;;3.92;;
55292;SDS011;41157;53.560;10.098;2022-08-03T06:58:53;11.75;;;4.18;;
55292;SDS011;41157;53.560;10.098;2022-08-03T07:01:19;11.02;;;3.83;;
55292;SDS011;41157;53.560;10.098;2022-08-03T07:03:45;6.03;;;3.65;;
55292;SDS011;41157;53.560;10.098;2022-08-03T07:06:11;7.40;;;3.33;;
55292;SDS011;41157;53.560;10.098;2022-08-03T07:08:37;6.22;;;3.22;;
55292;SDS011;41157;53.560;10.098;2022-08-03T07:11:03;12.02;;;3.72;;
55292;SDS011;41157;53.560;10.098;2022-08-03T07:13:29;5.25;;;2.92;;
55292;SDS011;41157;53.560;10.098;2022-08-03T07:15:55;11.82;;;3.95;;
55292;SDS011;41157;53.560;10.098;2022-08-03T07:18:21;6.13;;;3.30;;
55292;SDS011;41157;53.560;10.098;2022-08-03T07:20:47;8.05;;;2.90;;
55292;SDS011;41157;53.560;10.098;2022-08-03T07:23:13;2.95;;;2.60;;
55292;SDS011;41157;53.560;10.098;2022-08-03T07:25:39;3.47;;;3.05;;
55292;SDS011;41157;53.560;10.098;2022-08-03T07:28:05;5.80;;;2.80;;
55292;SDS011;41157;53.560;10.098;2022-08-03T07:30:32;5.93;;;2.50;;
55292;SDS011;41157;53.560;10.098;2022-08-03T07:32:59;6.65;;;2.60;;
55292;SDS011;41157;53.560;10.098;2022-08-03T07:35:25;7.22;;;3.10;;
55292;SDS011;41157;53.560;10.098;2022-08-03T07:37:52;5.00;;;3.00;;
55292;SDS011;41157;53.560;10.098;2022-08-03T07:40:18;2.80;;;2.38;;
55292;SDS011;41157;53.560;10.098;2022-08-03T07:42:44;2.58;;;2.33;;
55292;SDS011;41157;53.560;10.098;2022-08-03T07:45:09;5.22;;;3.00;;
55292;SDS011;41157;53.560;10.098;2022-08-03T07:47:35;4.80;;;2.58;;
55292;SDS011;41157;53.560;10.098;2022-08-03T07:50:02;4.72;;;2.80;;
55292;SDS011;41157;53.560;10.098;2022-08-03T07:52:28;2.63;;;2.33;;
55292;SDS011;41157;53.560;10.098;2022-08-03T07:55:12;5.25;;;2.42;;
55292;SDS011;41157;53.560;10.098;2022-08-03T07:57:38;8.38;;;2.60;;
55292;SDS011;41157;53.560;10.098;2022-08-03T08:00:05;6.15;;;2.08;;
55292;SDS011;41157;53.560;10.098;2022-08-03T08:02:33;3.45;;;2.28;;
55292;SDS011;41157;53.560;10.098;2022-08-03T08:04:59;4.07;;;2.17;;
55292;SDS011;41157;53.560;10.098;2022-08-03T08:07:25;3.17;;;2.20;;
55292;SDS011;41157;53.560;10.098;2022-08-03T08:09:51;5.40;;;2.20;;
55292;SDS011;41157;53.560;10.098;2022-08-03T08:12:17;5.10;;;2.30;;
55292;SDS011;41157;53.560;10.098;2022-08-03T08:14:43;4.30;;;1.95;;
55292;SDS011;41157;53.560;10.098;2022-08-03T08:17:10;9.45;;;2.10;;
55292;SDS011;41157;53.560;10.098;2022-08-03T08:19:36;4.70;;;2.53;;
55292;SDS011;41157;53.560;10.098;2022-08-03T08:22:02;4.40;;;1.80;;
55292;SDS011;41157;53.560;10.098;2022-08-03T08:24:28;4.57;;;1.95;;
55292;SDS011;41157;53.560;10.098;2022-08-03T08:26:54;5.55;;;2.30;;
55292;SDS011;41157;53.560;10.098;2022-08-03T08:29:21;4.13;;;2.38;;
55292;SDS011;41157;53.560;10.098;2022-08-03T08:31:47;16.25;;;2.47;;
55292;SDS011;41157;53.560;10.098;2022-08-03T08:34:14;6.85;;;2.40;;
55292;SDS011;41157;53.560;10.098;2022-08-03T08:36:40;3.60;;;2.10;;
55292;SDS011;41157;53.560;10.098;2022-08-03T08:39:06;5.88;;;1.90;;
55292;SDS011;41157;53.560;10.098;2022-08-03T08:41:32;4.72;;;2.08;;
55292;SDS011;41157;53.560;10.098;2022-08-03T08:43:59;9.18;;;1.80;;
55292;SDS011;41157;53.560;10.098;2022-08-03T08:46:25;6.22;;;1.95;;
55292;SDS011;41157;53.560;10.098;2022-08-03T08:48:51;7.18;;;2.03;;
55292;SDS011;41157;53.560;10.098;2022-08-03T08:51:18;3.45;;;1.52;;
55292;SDS011;41157;53.560;10.098;2022-08-03T08:53:46;3.17;;;2.08;;
55292;SDS011;41157;53.560;10.098;2022-08-03T08:56:14;4.90;;;1.95;;
55292;SDS011;41157;53.560;10.098;2022-08-03T08:58:41;8.50;;;1.88;;
55292;SDS011;41157;53.560;10.098;2022-08-03T09:01:09;7.38;;;1.80;;
55292;SDS011;41157;53.560;10.098;2022-08-03T09:03:35;3.58;;;1.90;;
55292;SDS011;41157;53.560;10.098;2022-08-03T09:06:01;7.47;;;2.13;;
55292;SDS011;41157;53.560;10.098;2022-08-03T09:08:28;5.10;;;1.92;;
55292;SDS011;41157;53.560;10.098;2022-08-03T09:10:54;5.15;;;1.92;;
55292;SDS011;41157;53.560;10.098;2022-08-03T09:13:20;4.97;;;1.75;;
55292;SDS011;41157;53.560;10.098;2022-08-03T09:15:46;3.22;;;1.70;;
55292;SDS011;41157;53.560;10.098;2022-08-03T09:18:13;5.78;;;2.00;;
55292;SDS011;41157;53.560;10.098;2022-08-03T09:20:52;4.88;;;2.60;;
55292;SDS011;41157;53.560;10.098;2022-08-03T09:23:43;4.60;;;2.00;;
55292;SDS011;41157;53.560;10.098;2022-08-03T09:26:09;5.45;;;2.10;;
55292;SDS011;41157;53.560;10.098;2022-08-03T09:28:35;6.90;;;1.95;;
55292;SDS011;41157;53.560;10.098;2022-08-03T09:31:02;8.48;;;2.10;;
55292;SDS011;41157;53.560;10.098;2022-08-03T09:33:28;5.63;;;1.85;;
55292;SDS011;41157;53.560;10.098;2022-08-03T09:35:53;2.85;;;1.70;;
55292;SDS011;41157;53.560;10.098;2022-08-03T09:38:21;7.90;;;2.40;;
55292;SDS011;41157;53.560;10.098;2022-08-03T09:40:48;3.17;;;1.58;;
55292;SDS011;41157;53.560;10.098;2022-08-03T09:43:15;5.55;;;1.75;;
55292;SDS011;41157;53.560;10.098;2022-08-03T09:45:41;4.78;;;1.70;;
55292;SDS011;41157;53.560;10.098;2022-08-03T09:48:24;6.32;;;1.80;;
55292;SDS011;41157;53.560;10.098;2022-08-03T09:50:51;7.78;;;1.67;;
55292;SDS011;41157;53.560;10.098;2022-08-03T09:53:17;8.40;;;2.40;;
55292;SDS011;41157;53.560;10.098;2022-08-03T09:55:50;3.88;;;2.15;;
55292;SDS011;41157;53.560;10.098;2022-08-03T09:58:17;6.55;;;2.17;;
55292;SDS011;41157;53.560;10.098;2022-08-03T10:00:52;7.93;;;2.13;;
55292;SDS011;41157;53.560;10.098;2022-08-03T10:03:18;4.63;;;1.90;;
55292;SDS011;41157;53.560;10.098;2022-08-03T10:05:44;4.18;;;2.08;;
55292;SDS011;41157;53.560;10.098;2022-08-03T10:08:14;4.55;;;1.70;;
55292;SDS011;41157;53.560;10.098;2022-08-03T10:10:41;2.75;;;1.77;;
55292;SDS011;41157;53.560;10.098;2022-08-03T10:13:08;5.53;;;1.70;;
55292;SDS011;41157;53.560;10.098;2022-08-03T10:15:34;4.28;;;2.10;;
55292;SDS011;41157;53.560;10.098;2022-08-03T10:18:00;4.05;;;1.80;;
55292;SDS011;41157;53.560;10.098;2022-08-03T10:20:26;3.70;;;1.98;;
55292;SDS011;41157;53.560;10.098;2022-08-03T10:22:52;7.55;;;2.08;;
55292;SDS011;41157;53.560;10.098;2022-08-03T10:25:19;6.38;;;1.83;;
55292;SDS011;41157;53.560;10.098;2022-08-03T10:27:46;8.85;;;2.00;;
55292;SDS011;41157;53.560;10.098;2022-08-03T10:30:12;7.68;;;1.90;;
55292;SDS011;41157;53.560;10.098;2022-08-03T10:35:05;5.10;;;1.52;;
55292;SDS011;41157;53.560;10.098;2022-08-03T10:37:32;8.05;;;2.00;;
55292;SDS011;41157;53.560;10.098;2022-08-03T10:39:59;7.20;;;1.65;;
55292;SDS011;41157;53.560;10.098;2022-08-03T10:42:25;6.25;;;2.00;;
55292;SDS011;41157;53.560;10.098;2022-08-03T10:44:59;1.95;;;1.50;;
55292;SDS011;41157;53.560;10.098;2022-08-03T10:47:27;9.02;;;1.88;;
55292;SDS011;41157;53.560;10.098;2022-08-03T10:49:53;4.95;;;1.70;;
55292;SDS011;41157;53.560;10.098;2022-08-03T10:52:19;7.13;;;1.77;;
55292;SDS011;41157;53.560;10.098;2022-08-03T10:54:45;6.13;;;1.98;;
55292;SDS011;41157;53.560;10.098;2022-08-03T10:57:52;7.68;;;1.60;;
55292;SDS011;41157;53.560;10.098;2022-08-03T11:00:19;4.50;;;1.92;;
55292;SDS011;41157;53.560;10.098;2022-08-03T11:03:01;4.28;;;1.63;;
55292;SDS011;41157;53.560;10.098;2022-08-03T11:05:28;2.72;;;1.60;;
55292;SDS011;41157;53.560;10.098;2022-08-03T11:10:39;1.67;;;1.50;;
55292;SDS011;41157;53.560;10.098;2022-08-03T11:13:06;4.50;;;1.92;;
55292;SDS011;41157;53.560;10.098;2022-08-03T11:15:32;13.50;;;2.22;;
55292;SDS011;41157;53.560;10.098;2022-08-03T11:18:09;5.40;;;1.58;;
55292;SDS011;41157;53.560;10.098;2022-08-03T11:20:48;3.67;;;1.50;;
55292;SDS011;41157;53.560;10.098;2022-08-03T11:23:15;7.90;;;1.77;;
55292;SDS011;41157;53.560;10.098;2022-08-03T11:28:40;8.40;;;1.63;;
55292;SDS011;41157;53.560;10.098;2022-08-03T11:36:30;4.90;;;1.60;;
55292;SDS011;41157;53.560;10.098;2022-08-03T11:39:12;12.63;;;2.10;;
55292;SDS011;41157;53.560;10.098;2022-08-03T11:41:38;9.27;;;1.90;;
55292;SDS011;41157;53.560;10.098;2022-08-03T11:44:04;3.00;;;1.70;;
55292;SDS011;41157;53.560;10.098;2022-08-03T11:46:35;8.68;;;2.28;;
55292;SDS011;41157;53.560;10.098;2022-08-03T11:49:05;6.35;;;1.67;;
55292;SDS011;41157;53.560;10.098;2022-08-03T11:51:31;5.05;;;1.70;;
55292;SDS011;41157;53.560;10.098;2022-08-03T11:54:01;7.15;;;1.92;;
55292;SDS011;41157;53.560;10.098;2022-08-03T11:56:28;10.05;;;2.10;;
55292;SDS011;41157;53.560;10.098;2022-08-03T11:58:55;9.77;;;2.08;;
55292;SDS011;41157;53.560;10.098;2022-08-03T12:01:22;10.38;;;1.90;;
55292;SDS011;41157;53.560;10.098;2022-08-03T12:03:49;6.05;;;1.70;;
55292;SDS011;41157;53.560;10.098;2022-08-03T12:06:16;5.15;;;1.42;;
55292;SDS011;41157;53.560;10.098;2022-08-03T12:08:43;3.00;;;1.60;;
55292;SDS011;41157;53.560;10.098;2022-08-03T12:11:10;6.05;;;2.03;;
55292;SDS011;41157;53.560;10.098;2022-08-03T12:13:37;4.47;;;1.83;;
55292;SDS011;41157;53.560;10.098;2022-08-03T12:16:04;4.22;;;1.63;;
55292;SDS011;41157;53.560;10.098;2022-08-03T12:18:30;3.75;;;1.80;;
55292;SDS011;41157;53.560;10.098;2022-08-03T12:21:03;4.47;;;1.52;;
55292;SDS011;41157;53.560;10.098;2022-08-03T12:23:29;8.55;;;1.70;;
55292;SDS011;41157;53.560;10.098;2022-08-03T12:26:00;3.78;;;1.85;;
55292;SDS011;41157;53.560;10.098;2022-08-03T12:28:26;7.18;;;2.20;;
55292;SDS011;41157;53.560;10.098;2022-08-03T12:30:52;5.45;;;2.30;;
55292;SDS011;41157;53.560;10.098;2022-08-03T12:33:25;10.38;;;1.75;;
55292;SDS011;41157;53.560;10.098;2022-08-03T12:36:02;8.38;;;1.63;;
55292;SDS011;41157;53.560;10.098;2022-08-03T12:38:29;12.45;;;2.20;;
55292;SDS011;41157;53.560;10.098;2022-08-03T12:40:56;4.05;;;1.80;;
55292;SDS011;41157;53.560;10.098;2022-08-03T12:43:22;6.45;;;1.88;;
55292;SDS011;41157;53.560;10.098;2022-08-03T12:45:48;5.43;;;1.80;;
55292;SDS011;41157;53.560;10.098;2022-08-03T12:48:14;6.00;;;1.67;;
55292;SDS011;41157;53.560;10.098;2022-08-03T12:50:40;5.32;;;2.10;;
55292;SDS011;41157;53.560;10.098;2022-08-03T12:53:07;3.70;;;1.55;;
55292;SDS011;41157;53.560;10.098;2022-08-03T12:55:33;7.32;;;1.83;;
55292;SDS011;41157;53.560;10.098;2022-08-03T12:58:00;4.32;;;1.63;;
55292;SDS011;41157;53.560;10.098;2022-08-03T13:00:26;4.25;;;1.60;;
55292;SDS011;41157;53.560;10.098;2022-08-03T13:03:03;6.07;;;2.53;;
55292;SDS011;41157;53.560;10.098;2022-08-03T13:05:31;6.35;;;1.80;;
55292;SDS011;41157;53.560;10.098;2022-08-03T13:07:57;4.55;;;2.08;;
55292;SDS011;41157;53.560;10.098;2022-08-03T13:10:27;10.30;;;1.85;;
55292;SDS011;41157;53.560;10.098;2022-08-03T13:12:53;6.70;;;1.58;;
55292;SDS011;41157;53.560;10.098;2022-08-03T13:15:22;5.40;;;1.55;;
55292;SDS011;41157;53.560;10.098;2022-08-03T13:17:50;2.55;;;1.63;;
55292;SDS011;41157;53.560;10.098;2022-08-03T13:20:16;3.58;;;1.75;;
55292;SDS011;41157;53.560;10.098;2022-08-03T13:22:45;7.28;;;2.05;;
55292;SDS011;41157;53.560;10.098;2022-08-03T13:25:11;3.40;;;1.80;;
55292;SDS011;41157;53.560;10.098;2022-08-03T13:27:37;6.43;;;1.80;;
55292;SDS011;41157;53.560;10.098;2022-08-03T13:30:04;7.95;;;1.73;;
55292;SDS011;41157;53.560;10.098;2022-08-03T13:32:30;2.95;;;1.58;;
55292;SDS011;41157;53.560;10.098;2022-08-03T13:34:56;6.72;;;2.05;;
55292;SDS011;41157;53.560;10.098;2022-08-03T13:37:22;10.10;;;1.73;;
55292;SDS011;41157;53.560;10.098;2022-08-03T13:39:48;4.57;;;1.80;;
55292;SDS011;41157;53.560;10.098;2022-08-03T13:42:13;6.50;;;1.58;;
55292;SDS011;41157;53.560;10.098;2022-08-03T13:44:39;3.65;;;1.85;;
55292;SDS011;41157;53.560;10.098;2022-08-03T13:47:05;4.57;;;1.60;;
55292;SDS011;41157;53.560;10.098;2022-08-03T13:49:31;4.28;;;1.75;;
55292;SDS011;41157;53.560;10.098;2022-08-03T13:51:58;2.45;;;1.65;;
55292;SDS011;41157;53.560;10.098;2022-08-03T13:54:25;5.55;;;2.40;;
55292;SDS011;41157;53.560;10.098;2022-08-03T13:56:51;6.35;;;2.00;;
55292;SDS011;41157;53.560;10.098;2022-08-03T13:59:17;5.53;;;1.90;;
55292;SDS011;41157;53.560;10.098;2022-08-03T14:01:44;7.22;;;1.80;;
55292;SDS011;41157;53.560;10.098;2022-08-03T14:04:10;7.38;;;1.60;;
55292;SDS011;41157;53.560;10.098;2022-08-03T14:06:36;3.67;;;1.80;;
55292;SDS011;41157;53.560;10.098;2022-08-03T14:09:02;8.80;;;1.65;;
55292;SDS011;41157;53.560;10.098;2022-08-03T14:11:28;7.68;;;1.88;;
55292;SDS011;41157;53.560;10.098;2022-08-03T14:13:54;5.35;;;2.08;;
55292;SDS011;41157;53.560;10.098;2022-08-03T14:16:20;3.35;;;1.70;;
55292;SDS011;41157;53.560;10.098;2022-08-03T14:18:46;8.20;;;1.70;;
55292;SDS011;41157;53.560;10.098;2022-08-03T14:21:12;4.28;;;1.60;;
55292;SDS011;41157;53.560;10.098;2022-08-03T14:23:38;6.43;;;2.00;;
55292;SDS011;41157;53.560;10.098;2022-08-03T14:26:04;6.55;;;1.63;;
55292;SDS011;41157;53.560;10.098;2022-08-03T14:28:31;6.18;;;2.08;;
55292;SDS011;41157;53.560;10.098;2022-08-03T14:30:57;3.85;;;1.90;;
55292;SDS011;41157;53.560;10.098;2022-08-03T14:33:23;5.95;;;1.95;;
55292;SDS011;41157;53.560;10.098;2022-08-03T14:35:49;6.25;;;1.80;;
55292;SDS011;41157;53.560;10.098;2022-08-03T14:38:16;4.80;;;1.88;;
55292;SDS011;41157;53.560;10.098;2022-08-03T14:40:42;2.28;;;1.40;;
55292;SDS011;41157;53.560;10.098;2022-08-03T14:43:08;8.05;;;2.05;;
55292;SDS011;41157;53.560;10.098;2022-08-03T14:45:34;6.60;;;2.50;;
55292;SDS011;41157;53.560;10.098;2022-08-03T14:48:01;7.28;;;1.90;;
55292;SDS011;41157;53.560;10.098;2022-08-03T14:50:28;3.92;;;1.70;;
55292;SDS011;41157;53.560;10.098;2022-08-03T14:52:54;6.90;;;1.75;;
55292;SDS011;41157;53.560;10.098;2022-08-03T14:55:20;2.58;;;1.63;;
55292;SDS011;41157;53.560;10.098;2022-08-03T14:57:46;5.13;;;1.60;;
55292;SDS011;41157;53.560;10.098;2022-08-03T15:00:12;4.18;;;1.80;;